Vitality — 2JBU7 — position and weather

sailwx.info

Track history (hours):
 
Tides and Currents Weather Stations Pressure Air Temp Water Temp Dewpoint Dewpoint Depression Visibility Wind Speed Wind Dir Waves Ship Positions

Vitality

Last reported at 2018-Jan-23 15:50 UTC. Time now 2018-Jan-24 10:06 UTC.
Position N 43°32' W 001°31'.

Length 90 m; draft 6.1 m.

Type: Cargo ship. MMSI: 235114599.

Date/timePositionNaut miles runAvg speedWind from/ knotsBaromVisibWave heightAir tempDewpointWater temp
2018-Jan-23 15:50N 43°32' W 001°31'1 3.7
2018-Jan-23 15:30N 43°32' W 001°32'3 5.3
2018-Jan-23 15:00N 43°35' W 001°33'0 0.1
2018-Jan-23 14:31N 43°35' W 001°33'0 0.0
2018-Jan-23 14:00N 43°35' W 001°33'0 0.0
2018-Jan-23 13:29N 43°35' W 001°33'0 0.0
2018-Jan-23 13:00N 43°35' W 001°33'0 0.0
2018-Jan-23 12:30N 43°35' W 001°33'0 0.0
2018-Jan-23 12:00N 43°35' W 001°33'0 0.0
2018-Jan-23 11:31N 43°35' W 001°33'0 0.0
2018-Jan-23 11:00N 43°35' W 001°33'0 0.0
2018-Jan-23 10:30N 43°35' W 001°32'0 0.0
2018-Jan-23 10:00N 43°35' W 001°32'0 0.0
2018-Jan-23 09:30N 43°35' W 001°32'0 0.1
2018-Jan-23 08:59N 43°35' W 001°33'0 0.2
2018-Jan-23 08:31N 43°35' W 001°33'2 3.1
2018-Jan-23 08:00N 43°36' W 001°34'8 9.3
2018-Jan-23 07:10N 43°42' W 001°41'2 9.3
2018-Jan-23 07:01N 43°43' W 001°42'5 9.2
2018-Jan-23 06:29N 43°47' W 001°45'4 9.2
2018-Jan-23 06:01N 43°51' W 001°48'5 9.3
2018-Jan-23 05:25N 43°56' W 001°52'6 8.7
2018-Jan-23 04:43N 44°01' W 001°56'257 8.0
2018-Jan-21 20:25N 47°45' W 004°59'3 8.2
2018-Jan-21 20:00N 47°48' W 005°02'4 8.2
2018-Jan-21 19:30N 47°51' W 005°04'20 7.1
2018-Jan-21 16:43N 48°09' W 005°18'6 6.4
2018-Jan-21 15:43N 48°15' W 005°22'24 5.7
2018-Jan-21 11:32N 48°38' W 005°15'0 7.4
2018-Jan-21 11:30N 48°39' W 005°15'4 7.3
2018-Jan-21 11:01N 48°41' W 005°10'4 7.4
2018-Jan-21 10:28N 48°43' W 005°06'3 7.0
2018-Jan-21 10:01N 48°46' W 005°02'60 6.1
2018-Jan-21 00:02N 49°27' W 003°55'28 5.0
2018-Jan-20 18:24N 49°45' W 003°21'2 4.6
2018-Jan-20 18:00N 49°46' W 003°19'2 4.8
2018-Jan-20 17:30N 49°47' W 003°16'3 5.1
2018-Jan-20 16:59N 49°49' W 003°13'2 5.3
2018-Jan-20 16:31N 49°51' W 003°10'4 5.6
2018-Jan-20 15:53N 49°53' W 003°06'3 6.2
2018-Jan-20 15:23N 49°55' W 003°02'2 6.3
2018-Jan-20 15:00N 49°56' W 002°59'3 6.7
2018-Jan-20 14:30N 49°58' W 002°55'3 6.9
2018-Jan-20 14:00N 49°59' W 002°50'3 6.5
2018-Jan-20 13:31N 49°60' W 002°45'3 6.1
2018-Jan-20 13:01N 50°00' W 002°40'6 5.6
2018-Jan-20 12:02N 50°02' W 002°32'0 5.1
2018-Jan-20 12:00N 50°02' W 002°32'85 7.6
2018-Jan-20 00:48N 50°24' W 000°23'2 6.4
2018-Jan-20 00:30N 50°25' W 000°20'3 6.0
2018-Jan-19 23:58N 50°26' W 000°15'2 5.3
2018-Jan-19 23:31N 50°26' W 000°11'2 4.7
2018-Jan-19 23:00N 50°27' W 000°08'2 4.5
2018-Jan-19 22:30N 50°27' W 000°04'2 4.1
2018-Jan-19 22:01N 50°27' W 000°01'2 4.1
2018-Jan-19 21:31N 50°28' E 000°02'2 4.7
2018-Jan-19 21:01N 50°28' E 000°05'2 4.8
2018-Jan-19 20:30N 50°29' E 000°09'3 5.4
2018-Jan-19 20:01N 50°30' E 000°13'3 5.7
2018-Jan-19 19:31N 50°31' E 000°17'3 6.6
2018-Jan-19 19:01N 50°32' E 000°22'4 7.1
2018-Jan-19 18:30N 50°33' E 000°28'2 4.5
2018-Jan-19 17:58N 50°34' E 000°31'3 6.3
2018-Jan-19 17:30N 50°35' E 000°36'4 7.8
2018-Jan-19 17:01N 50°37' E 000°41'4 7.8
2018-Jan-19 16:30N 50°39' E 000°46'4 7.8
2018-Jan-19 16:00N 50°41' E 000°51'4 7.6
2018-Jan-19 15:31N 50°44' E 000°55'4 7.3
2018-Jan-19 14:59N 50°46' E 000°60'5 6.9
2018-Jan-19 14:15N 50°49' E 001°06'2 6.6
2018-Jan-19 13:54N 50°51' E 001°09'3 6.4
2018-Jan-19 13:25N 50°53' E 001°13'3 6.1
2018-Jan-19 12:53N 50°55' E 001°17'2 5.8
2018-Jan-19 12:30N 50°56' E 001°20'3 5.9
2018-Jan-19 11:59N 50°58' E 001°23'3 6.6
2018-Jan-19 11:30N 51°01' E 001°26'4 7.8
2018-Jan-19 11:00N 51°03' E 001°31'4 9.0
2018-Jan-19 10:31N 51°06' E 001°36'5 9.9
2018-Jan-19 10:00N 51°10' E 001°42'510.8
2018-Jan-19 09:31N 51°14' E 001°47'510.8
2018-Jan-19 09:00N 51°18' E 001°53'510.4
2018-Jan-19 08:31N 51°23' E 001°57'4 7.6
2018-Jan-19 08:00N 51°24' E 002°02'4 8.4
2018-Jan-19 07:30N 51°23' E 002°09'4 8.4
2018-Jan-19 07:00N 51°21' E 002°15'4 8.1
2018-Jan-19 06:30N 51°21' E 002°21'4 8.2
2018-Jan-19 06:00N 51°22' E 002°28'4 7.8
2018-Jan-19 05:29N 51°23' E 002°34'4 7.4
2018-Jan-19 04:53N 51°22' E 002°41'3 5.9
2018-Jan-19 04:22N 51°22' E 002°46'3 7.0
2018-Jan-19 03:59N 51°22' E 002°50'3 6.7
2018-Jan-19 03:31N 51°22' E 002°55'3 6.3
2018-Jan-19 03:00N 51°22' E 003°00'3 6.4
2018-Jan-19 02:31N 51°22' E 003°06'3 6.3
2018-Jan-19 02:01N 51°23' E 003°10'3 5.6
2018-Jan-19 01:30N 51°23' E 003°15'3 5.4
2018-Jan-19 01:00N 51°24' E 003°19'3 5.5
2018-Jan-19 00:30N 51°24' E 003°24'3 5.9
2018-Jan-19 00:00N 51°25' E 003°28'3 6.6
2018-Jan-18 23:30N 51°25' E 003°34'3 6.5
2018-Jan-18 23:00N 51°25' E 003°39'4 7.1
2018-Jan-18 22:30N 51°23' E 003°43'4 8.6
2018-Jan-18 22:00N 51°21' E 003°50'4 9.0
2018-Jan-18 21:30N 51°23' E 003°56'5 9.1
2018-Jan-18 21:00N 51°26' E 004°00'510.0
2018-Jan-18 20:30N 51°22' E 004°05'5 9.9
2018-Jan-18 20:01N 51°24' E 004°12'4 7.7
2018-Jan-18 19:29N 51°21' E 004°17'0 0.0
2018-Jan-18 18:59N 51°21' E 004°17'0 0.0
2018-Jan-18 18:30N 51°21' E 004°17'0 0.0
2018-Jan-18 18:00N 51°21' E 004°17'0 0.0
2018-Jan-18 17:30N 51°21' E 004°17'1 2.5
2018-Jan-18 17:00N 51°20' E 004°18'3 6.2
2018-Jan-18 16:30N 51°17' E 004°20'0 0.0
2018-Jan-18 15:58N 51°17' E 004°20'0 0.0
2018-Jan-18 15:25N 51°17' E 004°20'0 0.0
2018-Jan-18 14:58N 51°17' E 004°20'0 0.0
2018-Jan-18 14:25N 51°17' E 004°20'0 0.0
2018-Jan-18 13:58N 51°17' E 004°20'0 0.0
2018-Jan-18 13:28N 51°17' E 004°20'0 0.0
2018-Jan-18 12:55N 51°17' E 004°20'0 0.0
2018-Jan-18 12:28N 51°17' E 004°20'0 0.0
2018-Jan-18 11:58N 51°17' E 004°20'0 0.0
2018-Jan-18 11:28N 51°17' E 004°20'0 0.0
2018-Jan-18 10:58N 51°17' E 004°20'0 0.0
2018-Jan-18 10:25N 51°17' E 004°20'0 0.0
2018-Jan-18 09:58N 51°17' E 004°20'0 0.0
2018-Jan-18 09:28N 51°17' E 004°20'0 0.0
2018-Jan-18 08:58N 51°17' E 004°20'0 0.0
2018-Jan-18 08:25N 51°17' E 004°20'0 0.0
2018-Jan-18 07:58N 51°17' E 004°20'0 0.0
2018-Jan-18 07:28N 51°17' E 004°20'0 0.0
2018-Jan-18 06:58N 51°17' E 004°20'0 0.0
2018-Jan-18 06:28N 51°17' E 004°20'0 0.0
2018-Jan-18 05:58N 51°17' E 004°20'0 0.0
2018-Jan-18 05:25N 51°17' E 004°20'0 0.0
2018-Jan-18 04:52N 51°17' E 004°20'0 0.0
2018-Jan-18 04:28N 51°17' E 004°20'0 0.0
2018-Jan-18 03:58N 51°17' E 004°20'0 0.0
2018-Jan-18 03:28N 51°17' E 004°20'0 0.0
2018-Jan-18 02:58N 51°17' E 004°20'0 0.0
2018-Jan-18 02:28N 51°17' E 004°20'0 0.0
2018-Jan-18 01:58N 51°17' E 004°20'0 0.0
2018-Jan-18 01:28N 51°17' E 004°20'0 0.0
2018-Jan-18 00:58N 51°17' E 004°20'0 0.0
2018-Jan-17 23:55N 51°17' E 004°20'  
Track history (hours):
 
Tides and Currents Weather Stations Pressure Air Temp Water Temp Dewpoint Dewpoint Depression Visibility Wind Speed Wind Dir Waves Ship Positions

Vitality

Last reported at 2018-Jan-23 15:50 UTC. Time now 2018-Jan-24 10:06 UTC.
Position N 43°32' W 001°31'.

Length 90 m; draft 6.1 m.

Type: Cargo ship. MMSI: 235114599.

Date/timePositionNaut miles runAvg speedWind from/ knotsBaromVisibWave heightAir tempDewpointWater temp
2018-Jan-23 15:50N 43°32' W 001°31'1 3.7
2018-Jan-23 15:30N 43°32' W 001°32'3 5.3
2018-Jan-23 15:00N 43°35' W 001°33'0 0.1
2018-Jan-23 14:31N 43°35' W 001°33'0 0.0
2018-Jan-23 14:00N 43°35' W 001°33'0 0.0
2018-Jan-23 13:29N 43°35' W 001°33'0 0.0
2018-Jan-23 13:00N 43°35' W 001°33'0 0.0
2018-Jan-23 12:30N 43°35' W 001°33'0 0.0
2018-Jan-23 12:00N 43°35' W 001°33'0 0.0
2018-Jan-23 11:31N 43°35' W 001°33'0 0.0
2018-Jan-23 11:00N 43°35' W 001°33'0 0.0
2018-Jan-23 10:30N 43°35' W 001°32'0 0.0
2018-Jan-23 10:00N 43°35' W 001°32'0 0.0
2018-Jan-23 09:30N 43°35' W 001°32'0 0.1
2018-Jan-23 08:59N 43°35' W 001°33'0 0.2
2018-Jan-23 08:31N 43°35' W 001°33'2 3.1
2018-Jan-23 08:00N 43°36' W 001°34'8 9.3
2018-Jan-23 07:10N 43°42' W 001°41'2 9.3
2018-Jan-23 07:01N 43°43' W 001°42'5 9.2
2018-Jan-23 06:29N 43°47' W 001°45'4 9.2
2018-Jan-23 06:01N 43°51' W 001°48'5 9.3
2018-Jan-23 05:25N 43°56' W 001°52'6 8.7
2018-Jan-23 04:43N 44°01' W 001°56'257 8.0
2018-Jan-21 20:25N 47°45' W 004°59'3 8.2
2018-Jan-21 20:00N 47°48' W 005°02'4 8.2
2018-Jan-21 19:30N 47°51' W 005°04'20 7.1
2018-Jan-21 16:43N 48°09' W 005°18'6 6.4
2018-Jan-21 15:43N 48°15' W 005°22'24 5.7
2018-Jan-21 11:32N 48°38' W 005°15'0 7.4
2018-Jan-21 11:30N 48°39' W 005°15'4 7.3
2018-Jan-21 11:01N 48°41' W 005°10'4 7.4
2018-Jan-21 10:28N 48°43' W 005°06'3 7.0
2018-Jan-21 10:01N 48°46' W 005°02'60 6.1
2018-Jan-21 00:02N 49°27' W 003°55'28 5.0
2018-Jan-20 18:24N 49°45' W 003°21'2 4.6
2018-Jan-20 18:00N 49°46' W 003°19'2 4.8
2018-Jan-20 17:30N 49°47' W 003°16'3 5.1
2018-Jan-20 16:59N 49°49' W 003°13'2 5.3
2018-Jan-20 16:31N 49°51' W 003°10'4 5.6
2018-Jan-20 15:53N 49°53' W 003°06'3 6.2
2018-Jan-20 15:23N 49°55' W 003°02'2 6.3
2018-Jan-20 15:00N 49°56' W 002°59'3 6.7
2018-Jan-20 14:30N 49°58' W 002°55'3 6.9
2018-Jan-20 14:00N 49°59' W 002°50'3 6.5
2018-Jan-20 13:31N 49°60' W 002°45'3 6.1
2018-Jan-20 13:01N 50°00' W 002°40'6 5.6
2018-Jan-20 12:02N 50°02' W 002°32'0 5.1
2018-Jan-20 12:00N 50°02' W 002°32'85 7.6
2018-Jan-20 00:48N 50°24' W 000°23'2 6.4
2018-Jan-20 00:30N 50°25' W 000°20'3 6.0
2018-Jan-19 23:58N 50°26' W 000°15'2 5.3
2018-Jan-19 23:31N 50°26' W 000°11'2 4.7
2018-Jan-19 23:00N 50°27' W 000°08'2 4.5
2018-Jan-19 22:30N 50°27' W 000°04'2 4.1
2018-Jan-19 22:01N 50°27' W 000°01'2 4.1
2018-Jan-19 21:31N 50°28' E 000°02'2 4.7
2018-Jan-19 21:01N 50°28' E 000°05'2 4.8
2018-Jan-19 20:30N 50°29' E 000°09'3 5.4
2018-Jan-19 20:01N 50°30' E 000°13'3 5.7
2018-Jan-19 19:31N 50°31' E 000°17'3 6.6
2018-Jan-19 19:01N 50°32' E 000°22'4 7.1
2018-Jan-19 18:30N 50°33' E 000°28'2 4.5
2018-Jan-19 17:58N 50°34' E 000°31'3 6.3
2018-Jan-19 17:30N 50°35' E 000°36'4 7.8
2018-Jan-19 17:01N 50°37' E 000°41'4 7.8
2018-Jan-19 16:30N 50°39' E 000°46'4 7.8
2018-Jan-19 16:00N 50°41' E 000°51'4 7.6
2018-Jan-19 15:31N 50°44' E 000°55'4 7.3
2018-Jan-19 14:59N 50°46' E 000°60'5 6.9
2018-Jan-19 14:15N 50°49' E 001°06'2 6.6
2018-Jan-19 13:54N 50°51' E 001°09'3 6.4
2018-Jan-19 13:25N 50°53' E 001°13'3 6.1
2018-Jan-19 12:53N 50°55' E 001°17'2 5.8
2018-Jan-19 12:30N 50°56' E 001°20'3 5.9
2018-Jan-19 11:59N 50°58' E 001°23'3 6.6
2018-Jan-19 11:30N 51°01' E 001°26'4 7.8
2018-Jan-19 11:00N 51°03' E 001°31'4 9.0
2018-Jan-19 10:31N 51°06' E 001°36'5 9.9
2018-Jan-19 10:00N 51°10' E 001°42'510.8
2018-Jan-19 09:31N 51°14' E 001°47'510.8
2018-Jan-19 09:00N 51°18' E 001°53'510.4
2018-Jan-19 08:31N 51°23' E 001°57'4 7.6
2018-Jan-19 08:00N 51°24' E 002°02'4 8.4
2018-Jan-19 07:30N 51°23' E 002°09'4 8.4
2018-Jan-19 07:00N 51°21' E 002°15'4 8.1
2018-Jan-19 06:30N 51°21' E 002°21'4 8.2
2018-Jan-19 06:00N 51°22' E 002°28'4 7.8
2018-Jan-19 05:29N 51°23' E 002°34'4 7.4
2018-Jan-19 04:53N 51°22' E 002°41'3 5.9
2018-Jan-19 04:22N 51°22' E 002°46'3 7.0
2018-Jan-19 03:59N 51°22' E 002°50'3 6.7
2018-Jan-19 03:31N 51°22' E 002°55'3 6.3
2018-Jan-19 03:00N 51°22' E 003°00'3 6.4
2018-Jan-19 02:31N 51°22' E 003°06'3 6.3
2018-Jan-19 02:01N 51°23' E 003°10'3 5.6
2018-Jan-19 01:30N 51°23' E 003°15'3 5.4
2018-Jan-19 01:00N 51°24' E 003°19'3 5.5
2018-Jan-19 00:30N 51°24' E 003°24'3 5.9
2018-Jan-19 00:00N 51°25' E 003°28'3 6.6
2018-Jan-18 23:30N 51°25' E 003°34'3 6.5
2018-Jan-18 23:00N 51°25' E 003°39'4 7.1
2018-Jan-18 22:30N 51°23' E 003°43'4 8.6
2018-Jan-18 22:00N 51°21' E 003°50'4 9.0
2018-Jan-18 21:30N 51°23' E 003°56'5 9.1
2018-Jan-18 21:00N 51°26' E 004°00'510.0
2018-Jan-18 20:30N 51°22' E 004°05'5 9.9
2018-Jan-18 20:01N 51°24' E 004°12'4 7.7
2018-Jan-18 19:29N 51°21' E 004°17'0 0.0
2018-Jan-18 18:59N 51°21' E 004°17'0 0.0
2018-Jan-18 18:30N 51°21' E 004°17'0 0.0
2018-Jan-18 18:00N 51°21' E 004°17'0 0.0
2018-Jan-18 17:30N 51°21' E 004°17'1 2.5
2018-Jan-18 17:00N 51°20' E 004°18'3 6.2
2018-Jan-18 16:30N 51°17' E 004°20'0 0.0
2018-Jan-18 15:58N 51°17' E 004°20'0 0.0
2018-Jan-18 15:25N 51°17' E 004°20'0 0.0
2018-Jan-18 14:58N 51°17' E 004°20'0 0.0
2018-Jan-18 14:25N 51°17' E 004°20'0 0.0
2018-Jan-18 13:58N 51°17' E 004°20'0 0.0
2018-Jan-18 13:28N 51°17' E 004°20'0 0.0
2018-Jan-18 12:55N 51°17' E 004°20'0 0.0
2018-Jan-18 12:28N 51°17' E 004°20'0 0.0
2018-Jan-18 11:58N 51°17' E 004°20'0 0.0
2018-Jan-18 11:28N 51°17' E 004°20'0 0.0
2018-Jan-18 10:58N 51°17' E 004°20'0 0.0
2018-Jan-18 10:25N 51°17' E 004°20'0 0.0
2018-Jan-18 09:58N 51°17' E 004°20'0 0.0
2018-Jan-18 09:28N 51°17' E 004°20'0 0.0
2018-Jan-18 08:58N 51°17' E 004°20'0 0.0
2018-Jan-18 08:25N 51°17' E 004°20'0 0.0
2018-Jan-18 07:58N 51°17' E 004°20'0 0.0
2018-Jan-18 07:28N 51°17' E 004°20'0 0.0
2018-Jan-18 06:58N 51°17' E 004°20'0 0.0
2018-Jan-18 06:28N 51°17' E 004°20'0 0.0
2018-Jan-18 05:58N 51°17' E 004°20'0 0.0
2018-Jan-18 05:25N 51°17' E 004°20'0 0.0
2018-Jan-18 04:52N 51°17' E 004°20'0 0.0
2018-Jan-18 04:28N 51°17' E 004°20'0 0.0
2018-Jan-18 03:58N 51°17' E 004°20'0 0.0
2018-Jan-18 03:28N 51°17' E 004°20'0 0.0
2018-Jan-18 02:58N 51°17' E 004°20'0 0.0
2018-Jan-18 02:28N 51°17' E 004°20'0 0.0
2018-Jan-18 01:58N 51°17' E 004°20'0 0.0
2018-Jan-18 01:28N 51°17' E 004°20'0 0.0
2018-Jan-18 00:58N 51°17' E 004°20'0 0.0
2018-Jan-17 23:55N 51°17' E 004°20'  

Dump ship's entire track history